Time;durP1;ratioP1;P1;durP2;ratioP2;P2;SDS_P1;SDS_P2;PMS_P1;PMS_P2;Temp;Humidity;BMP_temperature;BMP_pressure;BME280_temperature;BME280_humidity;BME280_pressure;Samples;Min_cycle;Max_cycle;Signal;HPM_P1;HPM_P2
2023/04/05 00:00:35;;;;;;;9.63;3.93;;;;;;;4.64;52.13;102569.88;6148505;28;20234;-71
2023/04/05 00:03:57;;;;;;;4.70;4.03;;;;;;;4.59;51.94;102569.28;6158501;28;20234;-70
2023/04/05 00:07:20;;;;;;;4.10;3.63;;;;;;;4.64;51.52;102566.41;6147643;28;20238;-70
2023/04/05 00:10:41;;;;;;;6.30;3.07;;;;;;;4.56;51.96;102558.16;6140684;28;20234;-71
2023/04/05 00:14:03;;;;;;;8.37;3.27;;;;;;;4.45;52.86;102556.16;6136405;28;20635;-71
2023/04/05 00:17:26;;;;;;;3.10;2.83;;;;;;;4.41;52.66;102558.09;6148207;28;20557;-70
2023/04/05 00:20:48;;;;;;;4.60;3.10;;;;;;;4.39;53.26;102565.19;6129869;28;20230;-71
2023/04/05 00:24:14;;;;;;;4.80;2.67;;;;;;;4.40;52.96;102564.25;6139639;28;20625;-70
2023/04/05 00:27:34;;;;;;;12.97;3.47;;;;;;;4.41;53.71;102560.72;6152793;28;20235;-69
2023/04/05 00:30:55;;;;;;;3.53;3.07;;;;;;;4.47;53.06;102564.75;6140539;28;20268;-71
2023/04/05 00:34:17;;;;;;;2.87;2.60;;;;;;;4.26;54.23;102568.56;6145832;28;20630;-71
2023/04/05 00:37:38;;;;;;;4.00;3.37;;;;;;;4.18;54.48;102570.75;6155709;28;20230;-70
2023/04/05 00:40:59;;;;;;;4.73;3.30;;;;;;;4.20;54.46;102563.69;6114346;28;20588;-70
2023/04/05 00:44:21;;;;;;;4.60;3.27;;;;;;;4.22;53.83;102561.81;6146195;28;20822;-72
2023/04/05 00:47:42;;;;;;;5.27;3.90;;;;;;;4.09;54.79;102564.25;6157589;28;20612;-70
2023/04/05 00:51:08;;;;;;;3.60;3.07;;;;;;;4.00;55.22;102555.16;6138405;28;20317;-71
2023/04/05 00:54:29;;;;;;;4.70;2.93;;;;;;;3.90;55.19;102545.28;6128653;28;20243;-71
2023/04/05 00:57:50;;;;;;;4.17;3.40;;;;;;;3.93;54.83;102553.81;6156203;28;20668;-70
2023/04/05 01:01:16;;;;;;;3.07;2.67;;;;;;;3.97;55.08;102554.50;6136039;28;20260;-71
2023/04/05 01:04:38;;;;;;;4.33;3.30;;;;;;;3.88;56.14;102548.00;6127236;28;20231;-71
2023/04/05 01:08:08;;;;;;;5.50;2.80;;;;;;;3.90;55.85;102547.91;6147509;28;20235;-70
2023/04/05 01:11:32;;;;;;;4.80;3.73;;;;;;;3.76;55.88;102546.91;6155047;28;20226;-71
2023/04/05 01:14:54;;;;;;;3.77;3.53;;;;;;;3.72;56.87;102547.13;6102695;28;20239;-70
2023/04/05 01:18:15;;;;;;;5.87;3.37;;;;;;;3.66;57.05;102547.47;6142923;28;20518;-70
2023/04/05 01:22:12;;;;;;;4.90;3.17;;;;;;;3.61;56.87;102541.66;6138544;28;20671;-71
2023/04/05 01:26:04;;;;;;;2.97;2.30;;;;;;;3.59;57.29;102541.75;6127923;28;20230;-72
2023/04/05 01:29:43;;;;;;;5.53;3.70;;;;;;;3.56;57.69;102533.22;6127500;28;20506;-71
2023/04/05 01:33:14;;;;;;;3.53;3.23;;;;;;;3.53;57.67;102530.78;6129748;28;20234;-71
2023/04/05 01:36:40;;;;;;;4.70;3.40;;;;;;;3.50;56.81;102521.34;6152028;28;20616;-71
2023/04/05 01:40:04;;;;;;;4.10;3.70;;;;;;;3.48;57.27;102520.56;6140196;28;20245;-71
2023/04/05 01:43:25;;;;;;;5.60;4.50;;;;;;;3.48;57.18;102511.91;6136793;28;20234;-70
2023/04/05 01:46:47;;;;;;;4.33;3.37;;;;;;;3.45;58.29;102512.91;6125856;28;20234;-71
2023/04/05 01:50:09;;;;;;;3.77;3.43;;;;;;;3.47;57.56;102507.59;6142004;28;20235;-70
2023/04/05 01:53:30;;;;;;;3.57;3.23;;;;;;;3.39;57.98;102505.38;6140116;28;20337;-71
2023/04/05 01:56:51;;;;;;;2.97;2.77;;;;;;;3.34;57.94;102500.44;6126054;28;21981;-70
2023/04/05 02:00:13;;;;;;;5.70;3.07;;;;;;;3.31;58.30;102504.97;6120534;28;20232;-71
2023/04/05 02:03:36;;;;;;;5.87;3.83;;;;;;;3.34;58.89;102499.59;6116585;28;20238;-71
2023/04/05 02:06:57;;;;;;;5.87;3.63;;;;;;;3.33;59.31;102493.53;6150122;28;20238;-70
2023/04/05 02:10:19;;;;;;;3.90;3.27;;;;;;;3.31;58.89;102497.97;6116190;28;20223;-71
2023/04/05 02:13:39;;;;;;;5.60;4.20;;;;;;;3.25;59.37;102487.84;6140892;28;20239;-71
2023/04/05 02:17:02;;;;;;;6.90;3.40;;;;;;;3.23;58.97;102486.25;6136387;28;20295;-71
2023/04/05 02:20:25;;;;;;;3.57;3.27;;;;;;;3.26;58.82;102484.31;6115428;28;20967;-71
2023/04/05 02:23:46;;;;;;;3.73;3.43;;;;;;;3.20;59.04;102492.47;6142662;28;20242;-70
2023/04/05 02:27:07;;;;;;;4.63;4.23;;;;;;;3.10;59.94;102493.88;6146359;28;20226;-72
2023/04/05 02:30:28;;;;;;;5.13;4.40;;;;;;;3.11;59.35;102485.13;6122347;28;20980;-72
2023/04/05 02:33:49;;;;;;;5.60;3.27;;;;;;;3.08;59.64;102488.75;6136659;28;20247;-71
2023/04/05 02:37:11;;;;;;;5.27;3.13;;;;;;;3.04;59.92;102488.97;6144110;28;20445;-71
2023/04/05 02:40:32;;;;;;;3.60;3.20;;;;;;;3.05;60.04;102490.66;6109933;28;20325;-72
2023/04/05 02:43:53;;;;;;;8.60;3.63;;;;;;;3.02;60.74;102483.84;6127728;28;20247;-71
2023/04/05 02:47:20;;;;;;;4.00;3.53;;;;;;;2.97;60.85;102487.59;6134496;28;20247;-71
2023/04/05 02:50:48;;;;;;;3.93;3.27;;;;;;;2.92;60.76;102489.63;6110880;28;20246;-70
2023/04/05 02:54:10;;;;;;;3.73;3.33;;;;;;;2.90;60.94;102483.66;6129412;28;20731;-71
2023/04/05 02:57:33;;;;;;;3.97;3.40;;;;;;;2.85;61.38;102481.25;6140015;28;20246;-71
2023/04/05 03:01:07;;;;;;;5.80;4.30;;;;;;;2.86;60.61;102485.56;6121103;28;20242;-71
2023/04/05 03:04:29;;;;;;;3.17;2.87;;;;;;;2.79;61.31;102483.34;6107433;28;20681;-70
2023/04/05 03:07:55;;;;;;;5.07;4.03;;;;;;;2.74;61.57;102480.94;6136786;28;20231;-71
2023/04/05 03:11:23;;;;;;;3.83;3.23;;;;;;;2.74;62.19;102471.38;6155673;28;20313;-70
2023/04/05 03:14:48;;;;;;;4.20;3.80;;;;;;;2.80;61.09;102478.03;6130726;28;20572;-71
2023/04/05 03:18:13;;;;;;;3.83;3.10;;;;;;;2.77;62.80;102467.75;6128659;28;20242;-71
2023/04/05 03:21:38;;;;;;;8.37;4.63;;;;;;;2.85;61.97;102485.63;6146341;28;20234;-71
2023/04/05 03:25:08;;;;;;;4.53;3.50;;;;;;;2.80;63.22;102475.44;6129182;28;20238;-70
2023/04/05 03:28:37;;;;;;;4.70;4.10;;;;;;;2.85;63.03;102465.63;6132754;28;20321;-71
2023/04/05 03:32:01;;;;;;;8.07;4.80;;;;;;;2.80;62.39;102462.41;6133009;28;20258;-71
2023/04/05 03:35:22;;;;;;;3.87;3.23;;;;;;;2.79;62.92;102467.69;6133476;28;20303;-71
2023/04/05 03:38:44;;;;;;;4.07;3.67;;;;;;;2.72;63.01;102462.78;6135208;28;20246;-70
2023/04/05 03:42:10;;;;;;;7.30;5.20;;;;;;;2.70;62.85;102458.59;6139559;28;20317;-71
2023/04/05 03:45:33;;;;;;;5.47;3.27;;;;;;;2.67;62.95;102466.56;6114097;28;20231;-71
2023/04/05 03:48:54;;;;;;;6.53;4.63;;;;;;;2.72;62.86;102464.53;6128399;28;20648;-70
2023/04/05 03:52:15;;;;;;;6.47;4.37;;;;;;;2.66;63.36;102467.47;6155255;28;20234;-71
2023/04/05 03:55:39;;;;;;;8.13;4.90;;;;;;;2.63;63.40;102465.88;6135620;28;20663;-70
2023/04/05 03:59:02;;;;;;;10.73;6.63;;;;;;;2.57;63.94;102462.72;6124842;28;20224;-71
2023/04/05 04:02:24;;;;;;;6.30;4.17;;;;;;;2.61;65.14;102461.66;6132698;28;20238;-70
2023/04/05 04:05:45;;;;;;;4.73;3.73;;;;;;;2.77;63.55;102464.31;6127092;28;20652;-70
2023/04/05 04:09:06;;;;;;;11.07;8.37;;;;;;;2.69;63.70;102459.50;6146637;28;20264;-70
2023/04/05 04:12:27;;;;;;;12.57;10.67;;;;;;;2.62;63.56;102458.13;6139732;28;20278;-70
2023/04/05 04:15:53;;;;;;;9.17;6.17;;;;;;;2.53;64.50;102456.81;6128911;28;20239;-70
2023/04/05 04:19:35;;;;;;;5.57;4.83;;;;;;;2.51;64.16;102457.81;6132039;28;20247;-71
2023/04/05 04:23:08;;;;;;;16.70;11.53;;;;;;;2.50;64.32;102453.50;6137035;28;20701;-70
2023/04/05 04:26:49;;;;;;;9.57;7.50;;;;;;;2.52;64.12;102455.13;6156344;28;20608;-71
2023/04/05 04:30:21;;;;;;;6.33;4.87;;;;;;;2.53;64.61;102448.16;6147882;28;20286;-70
2023/04/05 04:33:55;;;;;;;5.80;4.03;;;;;;;2.59;64.83;102447.84;6143481;28;20825;-71
2023/04/05 04:37:45;;;;;;;4.97;4.47;;;;;;;2.66;64.74;102455.28;6136992;28;20258;-70
2023/04/05 04:41:26;;;;;;;3.93;3.57;;;;;;;2.60;64.44;102447.78;6149770;28;20230;-70
2023/04/05 04:45:05;;;;;;;6.00;4.40;;;;;;;2.56;64.79;102448.00;6129727;28;20230;-70
2023/04/05 04:48:40;;;;;;;11.30;4.67;;;;;;;2.53;64.57;102453.34;6123856;28;20251;-71
2023/04/05 04:52:19;;;;;;;5.33;4.53;;;;;;;2.58;64.77;102447.00;6147846;28;20556;-71
2023/04/05 04:55:42;;;;;;;8.83;5.03;;;;;;;2.53;64.42;102441.19;6126806;28;20230;-70
2023/04/05 04:59:03;;;;;;;5.17;4.73;;;;;;;2.45;65.39;102439.88;6137040;28;20235;-71
2023/04/05 05:02:24;;;;;;;5.13;4.73;;;;;;;2.54;64.98;102439.41;6140861;28;20234;-71
2023/04/05 05:05:46;;;;;;;7.13;5.57;;;;;;;2.59;64.86;102443.47;6139650;28;20226;-70
2023/04/05 05:09:07;;;;;;;6.37;4.70;;;;;;;2.63;64.51;102446.78;6115444;28;20656;-72
2023/04/05 05:12:36;;;;;;;7.03;4.87;;;;;;;2.65;64.47;102451.00;6151749;28;20255;-69
2023/04/05 05:15:56;;;;;;;8.17;4.77;;;;;;;2.77;64.52;102444.28;6130011;28;20234;-69
2023/04/05 05:19:20;;;;;;;5.43;4.93;;;;;;;2.77;65.61;102446.91;6124053;28;20247;-69
2023/04/05 05:22:45;;;;;;;6.37;4.33;;;;;;;2.81;65.91;102447.59;6127184;28;20236;-68
2023/04/05 05:26:06;;;;;;;6.90;4.53;;;;;;;2.92;64.78;102443.53;6122170;28;20474;-73
2023/04/05 05:29:28;;;;;;;8.23;4.93;;;;;;;3.31;69.38;102439.72;6129909;28;20253;-74
2023/04/05 05:32:49;;;;;;;7.10;5.30;;;;;;;3.65;66.79;102441.31;6131657;28;20230;-68
2023/04/05 05:36:10;;;;;;;7.27;5.73;;;;;;;3.54;64.73;102441.09;6126992;28;20238;-70
2023/04/05 05:39:31;;;;;;;6.63;5.57;;;;;;;3.41;63.93;102443.50;6139063;28;20242;-69
2023/04/05 05:42:52;;;;;;;7.43;4.87;;;;;;;3.39;64.23;102440.13;6150417;28;20226;-70
2023/04/05 05:46:14;;;;;;;8.83;5.70;;;;;;;3.44;65.36;102443.34;6143801;28;20568;-69
2023/04/05 05:49:37;;;;;;;11.97;6.43;;;;;;;3.32;66.09;102436.19;6141573;28;20321;-71
2023/04/05 05:52:58;;;;;;;7.77;6.33;;;;;;;3.16;66.24;102432.72;6139733;28;20589;-69
2023/04/05 05:56:19;;;;;;;7.77;6.03;;;;;;;3.32;66.04;102437.03;6146205;28;20594;-69
2023/04/05 05:59:41;;;;;;;7.87;6.30;;;;;;;3.35;65.52;102425.59;6120031;28;20288;-71
2023/04/05 06:03:03;;;;;;;6.20;5.63;;;;;;;3.17;65.36;102427.41;6146041;28;20256;-71
2023/04/05 06:06:25;;;;;;;4.93;4.47;;;;;;;3.17;65.90;102416.13;6146128;28;20284;-70
2023/04/05 06:09:46;;;;;;;11.93;5.23;;;;;;;3.06;67.20;102422.78;6124512;28;21816;-70
2023/04/05 06:13:07;;;;;;;6.07;4.53;;;;;;;3.38;67.30;102413.22;6132712;28;20255;-70
2023/04/05 06:16:29;;;;;;;11.43;5.83;;;;;;;3.41;67.99;102420.84;6145638;28;20238;-71
2023/04/05 06:19:51;;;;;;;12.57;5.40;;;;;;;3.66;67.75;102417.75;6105702;28;20624;-70
2023/04/05 06:23:12;;;;;;;7.40;5.47;;;;;;;3.77;67.77;102412.78;6136745;28;20235;-70
2023/04/05 06:26:33;;;;;;;7.33;5.73;;;;;;;3.83;68.11;102411.59;6146571;28;20265;-72
2023/04/05 06:29:54;;;;;;;6.27;5.37;;;;;;;3.75;69.00;102412.03;6120239;28;21242;-69
2023/04/05 06:33:15;;;;;;;10.83;6.50;;;;;;;4.02;67.54;102414.00;6119494;28;20601;-70
2023/04/05 06:36:37;;;;;;;7.07;5.30;;;;;;;4.07;67.01;102412.78;6141287;28;21560;-70
2023/04/05 06:39:59;;;;;;;9.60;5.27;;;;;;;4.09;67.55;102418.78;6126957;28;20442;-69
2023/04/05 06:43:20;;;;;;;9.77;7.00;;;;;;;4.14;68.15;102421.13;6148778;28;20414;-69
2023/04/05 06:46:41;;;;;;;13.57;7.10;;;;;;;4.24;67.44;102424.06;6156114;28;20503;-69
2023/04/05 06:50:02;;;;;;;16.40;6.70;;;;;;;4.31;67.30;102425.38;6132775;28;20624;-70
2023/04/05 06:53:26;;;;;;;10.30;6.13;;;;;;;4.30;66.46;102427.16;6145467;28;20226;-69
2023/04/05 06:56:47;;;;;;;6.00;5.10;;;;;;;4.34;66.55;102427.81;6152211;28;20238;-71
2023/04/05 07:00:11;;;;;;;10.80;4.30;;;;;;;4.31;65.64;102421.00;6131738;28;20609;-68
2023/04/05 07:03:32;;;;;;;5.50;4.13;;;;;;;4.10;66.64;102423.06;6146810;28;20238;-69
2023/04/05 07:06:53;;;;;;;10.60;4.80;;;;;;;4.44;65.70;102426.38;6148538;28;20238;-69
2023/04/05 07:10:15;;;;;;;5.03;3.83;;;;;;;4.49;64.54;102421.72;6148357;28;20251;-70
2023/04/05 07:13:36;;;;;;;9.90;3.57;;;;;;;4.59;64.17;102428.06;6142799;28;20556;-69
2023/04/05 07:16:57;;;;;;;6.80;4.10;;;;;;;4.79;62.84;102427.72;6160187;28;20590;-70
2023/04/05 07:20:18;;;;;;;5.47;4.07;;;;;;;5.05;62.27;102431.38;6130396;28;20227;-70
2023/04/05 07:23:39;;;;;;;3.83;3.17;;;;;;;5.32;60.84;102433.22;6147318;28;20262;-69
2023/04/05 07:27:02;;;;;;;4.23;3.60;;;;;;;5.62;59.22;102427.84;6153998;28;20239;-69
2023/04/05 07:30:23;;;;;;;5.80;3.70;;;;;;;5.68;58.64;102430.91;6144690;28;20674;-69
2023/04/05 07:33:44;;;;;;;8.87;4.10;;;;;;;5.75;57.87;102431.34;6148596;28;20688;-68
2023/04/05 07:37:06;;;;;;;3.33;3.03;;;;;;;5.70;57.51;102422.94;6158460;28;20235;-70
2023/04/05 07:40:27;;;;;;;8.40;5.17;;;;;;;5.78;57.49;102426.78;6131782;28;20246;-71
2023/04/05 07:43:49;;;;;;;7.30;3.40;;;;;;;5.68;55.59;102427.44;6150727;28;20231;-69
2023/04/05 07:47:10;;;;;;;7.30;3.93;;;;;;;5.61;55.42;102429.63;6160145;28;20235;-69
2023/04/05 07:50:31;;;;;;;9.70;4.13;;;;;;;5.88;55.57;102427.00;6131150;28;20237;-69
2023/04/05 07:53:52;;;;;;;3.73;3.43;;;;;;;6.08;54.78;102416.13;6148890;28;20238;-69
2023/04/05 07:57:17;;;;;;;4.83;4.20;;;;;;;6.28;54.90;102420.03;6153446;28;20231;-70
2023/04/05 08:00:38;;;;;;;6.17;4.13;;;;;;;6.44;53.75;102411.97;6146443;28;20242;-70
2023/04/05 08:03:59;;;;;;;6.67;4.40;;;;;;;6.55;53.39;102408.66;6138093;28;20239;-69
2023/04/05 08:07:20;;;;;;;9.13;4.20;;;;;;;6.38;52.41;102412.38;6145214;28;20231;-69
2023/04/05 08:10:41;;;;;;;6.43;3.77;;;;;;;6.30;52.38;102412.06;6138942;28;20231;-68
2023/04/05 08:14:02;;;;;;;4.37;3.60;;;;;;;5.81;52.53;102408.22;6139733;28;20253;-69
2023/04/05 08:17:25;;;;;;;6.33;4.40;;;;;;;6.25;51.81;102401.88;6150892;28;20262;-69
2023/04/05 08:20:51;;;;;;;4.50;3.33;;;;;;;6.23;50.37;102397.69;6131582;28;20234;-69
2023/04/05 08:24:11;;;;;;;4.17;3.60;;;;;;;6.14;50.23;102389.47;6144024;28;20310;-69
2023/04/05 08:27:32;;;;;;;4.10;3.73;;;;;;;6.59;48.93;102395.19;6154305;28;20631;-69
2023/04/05 08:30:54;;;;;;;12.90;4.97;;;;;;;6.59;49.01;102389.94;6144975;28;20230;-69
2023/04/05 08:34:16;;;;;;;4.63;3.90;;;;;;;6.93;46.87;102396.34;6147253;28;20239;-68
2023/04/05 08:37:38;;;;;;;5.43;3.93;;;;;;;7.06;46.14;102391.91;6155045;28;20235;-69
2023/04/05 08:41:07;;;;;;;8.13;3.77;;;;;;;7.23;46.27;102393.34;6128721;28;20538;-68
2023/04/05 08:44:31;;;;;;;11.40;3.87;;;;;;;7.34;46.21;102379.47;6147343;28;20237;-69
2023/04/05 08:47:53;;;;;;;7.23;4.17;;;;;;;7.60;47.10;102383.69;6161869;28;20624;-69
2023/04/05 08:51:19;;;;;;;4.47;3.23;;;;;;;7.74;44.89;102383.50;6145364;28;20227;-68
2023/04/05 08:54:40;;;;;;;2.37;2.17;;;;;;;7.94;43.94;102371.50;6144442;28;20247;-69
2023/04/05 08:58:03;;;;;;;6.17;3.03;;;;;;;7.99;43.27;102369.38;6151913;28;20254;-69
2023/04/05 09:01:29;;;;;;;4.90;2.90;;;;;;;8.13;42.25;102374.44;6153646;28;20503;-69
2023/04/05 09:04:51;;;;;;;5.07;3.43;;;;;;;8.07;41.00;102366.19;6126289;28;20515;-70
2023/04/05 09:08:14;;;;;;;5.57;3.60;;;;;;;7.77;41.31;102374.56;6147541;28;20227;-69
2023/04/05 09:11:35;;;;;;;3.53;3.00;;;;;;;7.54;40.61;102377.06;6146421;28;20235;-70
2023/04/05 09:14:57;;;;;;;3.33;2.50;;;;;;;8.00;38.37;102363.19;6127951;28;20274;-70
2023/04/05 09:18:18;;;;;;;2.03;1.83;;;;;;;8.33;40.34;102369.53;6145416;28;20601;-69
2023/04/05 09:21:59;;;;;;;6.67;2.47;;;;;;;8.51;39.73;102360.22;6153206;28;21817;-69
2023/04/05 09:25:38;;;;;;;3.83;2.33;;;;;;;8.52;36.79;102364.53;6127961;28;20227;-70
2023/04/05 09:28:59;;;;;;;6.50;2.60;;;;;;;8.40;38.21;102358.41;6139519;28;20270;-69
2023/04/05 09:32:27;;;;;;;3.87;2.23;;;;;;;8.66;37.34;102364.28;6153493;28;20506;-68
2023/04/05 09:35:50;;;;;;;2.87;2.07;;;;;;;8.55;36.71;102362.50;6144599;28;20506;-69
2023/04/05 09:39:11;;;;;;;3.27;2.23;;;;;;;8.62;35.93;102359.38;6122265;28;20239;-69
2023/04/05 09:42:44;;;;;;;1.93;1.80;;;;;;;8.62;35.35;102354.97;6152004;28;20242;-70
2023/04/05 09:46:05;;;;;;;2.30;2.20;;;;;;;8.65;36.46;102348.63;6144314;28;20600;-69
2023/04/05 09:49:33;;;;;;;6.13;2.77;;;;;;;8.98;36.55;102350.44;6129129;28;20246;-70
2023/04/05 09:53:06;;;;;;;2.43;2.07;;;;;;;8.95;36.16;102346.22;6154489;28;20238;-69
2023/04/05 09:56:29;;;;;;;2.77;2.37;;;;;;;8.39;36.72;102343.56;6151195;28;20242;-68
2023/04/05 09:59:51;;;;;;;2.67;2.30;;;;;;;8.55;37.72;102336.19;6131085;28;20252;-68
2023/04/05 10:03:12;;;;;;;3.07;2.43;;;;;;;9.36;36.54;102336.81;6137725;28;20230;-68
2023/04/05 10:06:37;;;;;;;1.73;1.63;;;;;;;9.75;37.80;102330.91;6142649;28;20612;-67
2023/04/05 10:09:58;;;;;;;1.97;1.87;;;;;;;9.66;36.98;102325.59;6122718;28;20239;-66
2023/04/05 10:13:19;;;;;;;2.57;2.30;;;;;;;9.27;39.40;102330.47;6132737;28;20230;-66
2023/04/05 10:16:49;;;;;;;6.67;3.83;;;;;;;9.36;37.10;102334.19;6140045;28;20239;-66
2023/04/05 10:20:14;;;;;;;4.77;1.50;;;;;;;9.21;40.50;102328.34;6132160;28;20231;-67
2023/04/05 10:23:36;;;;;;;2.80;2.30;;;;;;;9.32;37.96;102322.22;6155909;28;20590;-66
2023/04/05 10:27:05;;;;;;;2.40;2.20;;;;;;;9.53;34.97;102312.56;6159378;28;20592;-66
2023/04/05 10:30:35;;;;;;;1.87;1.50;;;;;;;11.05;38.94;102312.75;6132789;28;20647;-67
2023/04/05 10:34:04;;;;;;;7.10;5.47;;;;;;;11.79;36.25;102313.13;6140450;28;20230;-69
2023/04/05 10:37:36;;;;;;;5.30;3.13;;;;;;;11.74;32.40;102296.81;6149993;28;20323;-69
2023/04/05 10:41:05;;;;;;;3.97;2.37;;;;;;;11.70;31.12;102295.44;6135595;28;20273;-69
2023/04/05 10:44:26;;;;;;;1.43;1.30;;;;;;;11.14;32.30;102290.78;6138659;28;20223;-69
2023/04/05 10:47:53;;;;;;;7.10;2.07;;;;;;;11.28;32.51;102286.94;6145616;28;20238;-69
2023/04/05 10:51:16;;;;;;;3.23;2.93;;;;;;;11.27;32.91;102288.72;6158416;28;20239;-69
2023/04/05 10:54:37;;;;;;;2.67;2.47;;;;;;;11.52;32.41;102283.88;6138695;28;20552;-70
2023/04/05 10:57:58;;;;;;;2.63;1.93;;;;;;;11.68;30.83;102278.03;6158821;28;20238;-69
2023/04/05 11:01:20;;;;;;;2.83;2.50;;;;;;;12.13;30.91;102273.78;6152702;28;20257;-69
2023/04/05 11:04:41;;;;;;;1.60;1.40;;;;;;;11.75;29.98;102272.00;6135750;28;20247;-69
2023/04/05 11:08:06;;;;;;;1.77;1.43;;;;;;;11.92;30.56;102270.50;6159442;28;20234;-69
2023/04/05 11:11:27;;;;;;;2.83;2.63;;;;;;;10.61;31.49;102271.75;6152453;28;24942;-69
2023/04/05 11:14:48;;;;;;;2.10;1.90;;;;;;;10.35;32.67;102267.91;6132709;28;20490;-69
2023/04/05 11:18:10;;;;;;;2.20;1.80;;;;;;;9.74;33.38;102258.06;6145011;28;20227;-71
2023/04/05 11:21:31;;;;;;;1.97;1.80;;;;;;;9.48;34.66;102254.13;6145233;28;20238;-68
2023/04/05 11:24:56;;;;;;;2.47;2.27;;;;;;;9.83;35.12;102261.72;6148894;28;20612;-69
2023/04/05 11:28:30;;;;;;;2.77;1.93;;;;;;;10.04;34.69;102267.84;6145284;28;20254;-68
2023/04/05 11:31:59;;;;;;;2.57;2.37;;;;;;;10.12;34.90;102260.13;6148386;28;20226;-69
2023/04/05 11:35:22;;;;;;;2.77;2.57;;;;;;;9.84;34.60;102258.13;6131055;28;20480;-70
2023/04/05 11:38:44;;;;;;;2.93;2.67;;;;;;;9.58;35.59;102247.13;6150116;28;20243;-69
2023/04/05 11:42:09;;;;;;;2.17;2.03;;;;;;;9.18;36.18;102245.13;6155218;28;20234;-70
2023/04/05 11:45:31;;;;;;;3.33;2.77;;;;;;;9.31;35.89;102244.13;6131899;28;20691;-69
2023/04/05 11:48:53;;;;;;;3.90;2.47;;;;;;;9.74;35.99;102238.75;6152136;28;20596;-70
2023/04/05 11:52:15;;;;;;;3.40;2.00;;;;;;;10.15;36.19;102236.09;6142923;28;20242;-69
2023/04/05 11:55:36;;;;;;;2.10;2.00;;;;;;;13.89;29.75;102229.09;6137193;28;20234;-69
2023/04/05 11:58:59;;;;;;;4.37;2.10;;;;;;;17.08;23.58;102221.81;6149581;28;22941;-69
2023/04/05 12:02:21;;;;;;;2.07;1.97;;;;;;;15.04;26.44;102218.81;6153767;28;20684;-70
2023/04/05 12:05:46;;;;;;;4.10;2.13;;;;;;;14.01;27.74;102213.72;6149783;28;20230;-69
2023/04/05 12:09:07;;;;;;;1.90;1.80;;;;;;;13.04;29.16;102207.66;6144681;28;20327;-70
2023/04/05 12:12:28;;;;;;;2.20;1.60;;;;;;;13.80;29.17;102211.44;6151697;28;20250;-69
2023/04/05 12:15:50;;;;;;;2.33;2.13;;;;;;;14.50;28.78;102198.88;6137816;28;20268;-69
2023/04/05 12:19:11;;;;;;;2.47;1.90;;;;;;;14.19;26.81;102205.72;6136116;28;20563;-69
2023/04/05 12:22:32;;;;;;;3.37;2.10;;;;;;;12.84;28.50;102206.97;6147728;28;20238;-68
2023/04/05 12:25:55;;;;;;;1.87;1.50;;;;;;;12.84;29.23;102204.31;6129211;28;20235;-69
2023/04/05 12:29:16;;;;;;;2.73;2.53;;;;;;;12.42;28.74;102201.38;6135722;28;20610;-69
2023/04/05 12:32:42;;;;;;;1.93;1.57;;;;;;;11.94;29.36;102194.47;6146642;28;20504;-70
2023/04/05 12:36:05;;;;;;;2.17;1.93;;;;;;;11.29;31.22;102196.09;6127148;28;20473;-69
2023/04/05 12:39:29;;;;;;;2.17;1.90;;;;;;;11.49;30.16;102187.16;6131951;28;20583;-70
2023/04/05 12:42:50;;;;;;;2.30;2.10;;;;;;;11.26;31.12;102189.25;6148430;28;20325;-69
2023/04/05 12:46:11;;;;;;;2.60;1.57;;;;;;;11.09;31.99;102181.19;6152953;28;20321;-69
2023/04/05 12:49:37;;;;;;;2.67;2.47;;;;;;;11.12;31.72;102176.44;6132291;28;20235;-69
2023/04/05 12:52:59;;;;;;;2.37;2.17;;;;;;;10.69;32.56;102168.09;6152006;28;20525;-70
2023/04/05 12:56:20;;;;;;;4.97;1.83;;;;;;;10.18;33.26;102179.56;6156537;28;20234;-69
2023/04/05 12:59:42;;;;;;;3.23;2.83;;;;;;;10.07;33.08;102162.06;6143550;28;20329;-69
2023/04/05 13:03:03;;;;;;;1.97;1.53;;;;;;;9.86;33.51;102167.38;6152257;28;20509;-69
2023/04/05 13:06:26;;;;;;;3.30;3.03;;;;;;;10.29;34.55;102163.69;6153850;28;20597;-70
2023/04/05 13:09:47;;;;;;;3.87;2.63;;;;;;;10.61;35.49;102150.28;6133351;28;20231;-69
2023/04/05 13:13:07;;;;;;;6.27;3.20;;;;;;;11.74;34.92;102153.13;6148693;28;20238;-69
2023/04/05 13:16:28;;;;;;;2.93;2.00;;;;;;;11.59;32.89;102153.56;6153180;28;20239;-68
2023/04/05 13:19:49;;;;;;;2.87;2.53;;;;;;;11.77;32.99;102156.34;6129336;28;20231;-69
2023/04/05 13:23:12;;;;;;;2.90;1.93;;;;;;;11.98;33.50;102158.78;6144658;28;20612;-68
2023/04/05 13:26:32;;;;;;;2.50;2.30;;;;;;;12.16;33.54;102154.41;6158381;28;20238;-69
2023/04/05 13:29:53;;;;;;;2.80;2.43;;;;;;;13.52;31.61;102135.66;6126777;28;20537;-69
2023/04/05 13:33:14;;;;;;;2.13;1.80;;;;;;;14.06;30.37;102142.41;6146846;28;20238;-69
2023/04/05 13:36:35;;;;;;;3.70;2.53;;;;;;;13.00;30.83;102139.06;6148019;28;20679;-69
2023/04/05 13:39:57;;;;;;;2.83;2.13;;;;;;;12.33;32.67;102143.00;6132159;28;20502;-67
2023/04/05 13:43:18;;;;;;;7.60;3.57;;;;;;;12.82;31.89;102145.34;6146465;28;20227;-68
2023/04/05 13:46:39;;;;;;;3.63;3.23;;;;;;;15.47;27.54;102129.00;6152418;28;20511;-68
2023/04/05 13:49:59;;;;;;;4.67;2.50;;;;;;;13.96;28.63;102133.75;6139113;28;20253;-69
2023/04/05 13:53:20;;;;;;;2.33;2.07;;;;;;;11.17;33.65;102131.94;6142796;28;20584;-68
2023/04/05 13:56:42;;;;;;;3.40;3.10;;;;;;;10.27;36.24;102136.59;6154222;28;20260;-68
2023/04/05 14:00:05;;;;;;;2.07;1.97;;;;;;;10.03;36.69;102136.06;6130144;28;20350;-68
2023/04/05 14:03:32;;;;;;;3.23;2.93;;;;;;;10.02;36.58;102123.84;6145924;28;20286;-69
2023/04/05 14:06:53;;;;;;;2.67;2.47;;;;;;;10.07;36.91;102124.28;6158807;28;20230;-69
2023/04/05 14:10:14;;;;;;;2.27;2.07;;;;;;;9.84;37.43;102123.63;6145630;28;20487;-69
2023/04/05 14:13:36;;;;;;;2.70;2.23;;;;;;;9.82;38.05;102121.13;6144965;28;20367;-69
2023/04/05 14:16:57;;;;;;;2.67;2.20;;;;;;;9.95;37.56;102120.88;6155831;28;20636;-69
2023/04/05 14:20:18;;;;;;;3.30;2.77;;;;;;;9.72;37.77;102117.59;6142242;28;20241;-69
2023/04/05 14:23:39;;;;;;;4.10;2.67;;;;;;;9.54;38.25;102119.19;6141891;28;20330;-69
2023/04/05 14:27:01;;;;;;;3.63;3.33;;;;;;;9.57;38.75;102117.13;6143513;28;20608;-69
2023/04/05 14:30:23;;;;;;;4.10;2.97;;;;;;;9.58;38.03;102121.44;6122214;28;20334;-68
2023/04/05 14:33:44;;;;;;;3.23;2.47;;;;;;;9.79;38.38;102112.66;6145309;28;20520;-68
2023/04/05 14:37:06;;;;;;;3.23;2.37;;;;;;;9.99;38.00;102109.13;6148673;28;20600;-69
2023/04/05 14:40:27;;;;;;;3.23;2.93;;;;;;;10.07;37.60;102113.72;6125158;28;20230;-69
2023/04/05 14:43:48;;;;;;;3.30;2.07;;;;;;;10.14;38.10;102110.44;6135598;28;20222;-69
2023/04/05 14:47:11;;;;;;;2.70;2.23;;;;;;;10.15;38.53;102108.63;6150638;28;20230;-68
2023/04/05 14:50:31;;;;;;;5.43;2.47;;;;;;;10.26;38.22;102109.38;6121376;28;20518;-69
2023/04/05 14:53:52;;;;;;;4.30;2.00;;;;;;;10.47;38.04;102106.63;6130208;28;20247;-69
2023/04/05 14:57:13;;;;;;;6.47;2.70;;;;;;;10.56;37.01;102102.34;6144088;28;20224;-69
2023/04/05 15:00:34;;;;;;;2.17;2.07;;;;;;;10.60;36.83;102095.81;6126751;28;20964;-69
2023/04/05 15:03:57;;;;;;;2.40;2.20;;;;;;;10.87;36.86;102095.94;6144050;28;20235;-69
2023/04/05 15:07:18;;;;;;;2.10;2.00;;;;;;;10.74;36.88;102082.19;6154647;28;20551;-69
2023/04/05 15:10:41;;;;;;;3.53;3.17;;;;;;;10.41;37.01;102085.22;6124899;28;20654;-68
2023/04/05 15:14:02;;;;;;;2.10;1.90;;;;;;;10.17;37.33;102085.56;6142349;28;20657;-70
2023/04/05 15:17:23;;;;;;;3.67;3.33;;;;;;;10.50;36.78;102085.25;6146224;28;20226;-70
2023/04/05 15:20:45;;;;;;;2.87;2.67;;;;;;;10.57;36.51;102082.88;6128444;28;20589;-69
2023/04/05 15:24:06;;;;;;;4.20;2.47;;;;;;;10.51;36.62;102081.63;6139980;28;20238;-69
2023/04/05 15:27:27;;;;;;;3.40;2.27;;;;;;;10.56;36.80;102084.69;6151676;28;20230;-70
2023/04/05 15:30:50;;;;;;;2.13;2.03;;;;;;;10.38;36.68;102074.97;6121836;28;20484;-69
2023/04/05 15:34:11;;;;;;;1.63;1.53;;;;;;;10.25;40.50;102081.31;6145048;28;20234;-66
2023/04/05 15:37:34;;;;;;;1.87;1.77;;;;;;;10.52;40.46;102087.75;6158246;28;20246;-66
2023/04/05 15:40:56;;;;;;;1.53;1.43;;;;;;;10.60;39.50;102080.81;6127021;28;20246;-67
2023/04/05 15:44:17;;;;;;;1.53;1.43;;;;;;;10.70;40.73;102070.25;6150789;28;20238;-66
2023/04/05 15:47:39;;;;;;;2.17;1.97;;;;;;;10.55;37.40;102064.56;6151908;28;20242;-67
2023/04/05 15:51:00;;;;;;;1.97;1.80;;;;;;;10.63;42.38;102069.94;6117442;28;21251;-67
2023/04/05 15:54:22;;;;;;;3.07;1.80;;;;;;;10.82;40.04;102063.84;6109123;28;20254;-66